createdAt,value
2022-07-26T00:02:23.940Z,97647.28
2022-07-26T00:05:12.392Z,97643.16
2022-07-26T00:08:11.679Z,97635.69
2022-07-26T00:11:00.127Z,97633.13
2022-07-26T00:13:55.613Z,97628.13
2022-07-26T00:16:44.236Z,97620.81
2022-07-26T00:19:34.077Z,97620.47
2022-07-26T00:22:40.018Z,97617.69
2022-07-26T00:25:28.701Z,97618.47
2022-07-26T00:28:17.277Z,97613.03
2022-07-26T00:31:05.992Z,97602.88
2022-07-26T00:33:54.420Z,97586.63
2022-07-26T00:36:44.574Z,97593.34
2022-07-26T00:39:32.985Z,97600.88
2022-07-26T00:42:21.341Z,97603.44
2022-07-26T00:45:11.723Z,97605.28
2022-07-26T00:48:00.175Z,97611.66
2022-07-26T00:50:48.692Z,97594.84
2022-07-26T00:53:38.473Z,97604.28
2022-07-26T00:56:27.928Z,97608.72
2022-07-26T00:59:16.318Z,97610.88
2022-07-26T01:02:06.241Z,97603.97
2022-07-26T01:04:54.746Z,97603.56
2022-07-26T01:07:43.444Z,97603.25
2022-07-26T01:10:33.584Z,97598.97
2022-07-26T01:13:22.174Z,97597.41
2022-07-26T01:16:10.627Z,97589.97
2022-07-26T01:18:59.152Z,97581.78
2022-07-26T01:21:49.389Z,97576.06
2022-07-26T01:24:38.185Z,97569.88
2022-07-26T01:27:30.694Z,97578.44
2022-07-26T01:30:21.978Z,97575.41
2022-07-26T01:33:10.371Z,97573.16
2022-07-26T01:35:59.520Z,97572.22
2022-07-26T01:38:49.380Z,97572.03
2022-07-26T01:41:38.573Z,97569.09
2022-07-26T01:44:27.013Z,97568.94
2022-07-26T01:47:15.416Z,97566.66
2022-07-26T01:50:04.580Z,97563.06
2022-07-26T01:52:52.941Z,97559.22
2022-07-26T01:55:42.762Z,97558.28
2022-07-26T01:58:31.093Z,97543.72
2022-07-26T02:01:38.824Z,97552.88
2022-07-26T02:04:45.828Z,97545.06
2022-07-26T02:07:42.521Z,97535.75
2022-07-26T02:10:47.116Z,97530.50
2022-07-26T02:13:38.489Z,97524.94
2022-07-26T02:16:27.005Z,97532.25
2022-07-26T02:19:15.450Z,97522.53
2022-07-26T02:22:04.079Z,97519.72
2022-07-26T02:24:52.885Z,97519.88
2022-07-26T02:27:41.324Z,97527.53
2022-07-26T02:30:31.124Z,97527.91
2022-07-26T02:33:20.429Z,97528.28
2022-07-26T02:36:08.848Z,97537.00
2022-07-26T02:38:57.171Z,97533.09
2022-07-26T02:41:45.583Z,97530.16
2022-07-26T02:44:34.958Z,97524.16
2022-07-26T02:47:25.623Z,97522.97
2022-07-26T02:50:13.998Z,97520.41
2022-07-26T02:53:02.413Z,97522.09
2022-07-26T02:55:50.754Z,97516.69
2022-07-26T02:58:39.515Z,97516.16
2022-07-26T03:01:28.288Z,97513.53
2022-07-26T03:04:18.039Z,97509.97
2022-07-26T03:07:06.419Z,97503.28
2022-07-26T03:09:54.964Z,97499.78
2022-07-26T03:12:43.876Z,97500.66
2022-07-26T03:15:32.513Z,97498.03
2022-07-26T03:18:21.106Z,97488.31
2022-07-26T03:21:11.000Z,97496.00
2022-07-26T03:23:59.391Z,97492.66
2022-07-26T03:26:47.862Z,97486.88
2022-07-26T03:29:36.477Z,97489.84
2022-07-26T03:32:24.803Z,97493.38
2022-07-26T03:35:13.092Z,97485.19
2022-07-26T03:38:02.830Z,97482.00
2022-07-26T03:40:51.320Z,97482.16
2022-07-26T03:43:39.801Z,97485.34
2022-07-26T03:46:28.393Z,97485.31
2022-07-26T03:49:17.500Z,97480.06
2022-07-26T03:52:06.660Z,97472.94
2022-07-26T03:54:56.559Z,97470.44
2022-07-26T03:57:43.906Z,97472.63
2022-07-26T04:00:32.320Z,97465.69
2022-07-26T04:03:20.901Z,97477.63
2022-07-26T04:06:10.342Z,97471.78
2022-07-26T04:08:58.703Z,97463.56
2022-07-26T04:11:48.975Z,97468.72
2022-07-26T04:14:38.702Z,97471.75
2022-07-26T04:17:27.146Z,97467.28
2022-07-26T04:20:16.715Z,97468.88
2022-07-26T04:23:05.261Z,97466.72
2022-07-26T04:25:59.969Z,97464.47
2022-07-26T04:28:49.943Z,97462.81
2022-07-26T04:31:38.278Z,97465.22
2022-07-26T04:34:26.818Z,97472.09
2022-07-26T04:37:15.285Z,97472.13
2022-07-26T04:40:03.926Z,97462.13
2022-07-26T04:42:53.096Z,97459.59
2022-07-26T04:45:43.038Z,97471.03
2022-07-26T04:48:31.682Z,97455.09
2022-07-26T04:51:20.806Z,97470.75
2022-07-26T04:54:09.624Z,97464.06
2022-07-26T04:56:58.218Z,97472.06
2022-07-26T04:59:58.113Z,97470.22
2022-07-26T05:02:58.378Z,97474.75
2022-07-26T05:05:47.219Z,97462.34
2022-07-26T05:08:35.761Z,97462.75
2022-07-26T05:11:24.089Z,97467.81
2022-07-26T05:14:12.471Z,97465.28
2022-07-26T05:17:08.927Z,97468.84
2022-07-26T05:20:03.150Z,97470.19
2022-07-26T05:22:51.848Z,97468.75
2022-07-26T05:25:41.610Z,97471.44
2022-07-26T05:28:29.947Z,97471.19
2022-07-26T05:31:18.419Z,97478.47
2022-07-26T05:34:08.375Z,97470.72
2022-07-26T05:36:58.430Z,97473.97
2022-07-26T05:39:46.862Z,97467.59
2022-07-26T05:42:35.182Z,97468.03
2022-07-26T05:45:23.862Z,97472.16
2022-07-26T05:48:12.423Z,97472.88
2022-07-26T05:51:01.301Z,97461.06
2022-07-26T05:53:51.090Z,97467.84
2022-07-26T05:56:39.582Z,97474.91
2022-07-26T05:59:28.139Z,97472.75
2022-07-26T06:02:16.799Z,97469.09
2022-07-26T06:05:06.080Z,97476.16
2022-07-26T06:07:54.543Z,97474.13
2022-07-26T06:10:44.317Z,97487.63
2022-07-26T06:13:32.739Z,97497.50
2022-07-26T06:16:21.232Z,97512.25
2022-07-26T06:19:09.581Z,97517.91
2022-07-26T06:21:58.157Z,97514.66
2022-07-26T06:24:46.589Z,97525.09
2022-07-26T06:27:36.243Z,97518.72
2022-07-26T06:30:24.766Z,97519.41
2022-07-26T06:33:13.221Z,97524.41
2022-07-26T06:36:01.632Z,97521.06
2022-07-26T06:38:51.436Z,97525.13
2022-07-26T06:41:39.915Z,97529.88
2022-07-26T06:44:29.709Z,97524.69
2022-07-26T06:47:18.126Z,97532.88
2022-07-26T06:50:07.742Z,97546.13
2022-07-26T06:52:56.160Z,97531.59
2022-07-26T06:55:44.491Z,97535.16
2022-07-26T06:58:34.231Z,97539.75
2022-07-26T07:01:58.243Z,97548.53
2022-07-26T07:04:34.612Z,97555.00
2022-07-26T07:07:22.994Z,97544.78
2022-07-26T07:10:12.734Z,97540.94
2022-07-26T07:13:01.148Z,97535.16
2022-07-26T07:15:50.107Z,97533.66
2022-07-26T07:18:39.782Z,97533.78
2022-07-26T07:21:28.544Z,97527.28
2022-07-26T07:24:17.190Z,97540.25
2022-07-26T07:27:06.106Z,97545.38
2022-07-26T07:29:55.091Z,97554.00
2022-07-26T07:32:45.121Z,97546.88
2022-07-26T07:35:35.488Z,97548.50
2022-07-26T07:38:24.563Z,97588.28
2022-07-26T07:41:13.000Z,97562.84
2022-07-26T07:44:01.549Z,97573.16
2022-07-26T07:46:49.961Z,97581.00
2022-07-26T07:49:38.323Z,97588.13
2022-07-26T07:52:28.132Z,97602.19
2022-07-26T07:55:40.722Z,97621.72
2022-07-26T07:58:25.075Z,97594.88
2022-07-26T08:01:16.622Z,97618.13
2022-07-26T08:04:05.129Z,97623.31
2022-07-26T08:06:53.757Z,97660.94
2022-07-26T08:09:43.673Z,97667.78
2022-07-26T08:12:32.178Z,97670.44
2022-07-26T08:15:22.028Z,97636.75
2022-07-26T08:18:10.761Z,97668.66
2022-07-26T08:21:03.514Z,97662.75
2022-07-26T08:23:52.485Z,97662.22
2022-07-26T08:26:42.460Z,97648.16
2022-07-26T08:29:30.930Z,97666.53
2022-07-26T08:32:19.351Z,97641.72
2022-07-26T08:35:19.869Z,97657.31
2022-07-26T08:38:08.535Z,97688.44
2022-07-26T08:40:56.999Z,97672.25
2022-07-26T08:43:51.637Z,97675.41
2022-07-26T08:46:43.157Z,97696.59
2022-07-26T08:49:31.672Z,97679.97
2022-07-26T08:52:20.117Z,97699.06
2022-07-26T08:55:11.045Z,97694.50
2022-07-26T08:58:00.568Z,97705.97
2022-07-26T09:01:05.251Z,97693.94
2022-07-26T09:03:53.709Z,97696.34
2022-07-26T09:06:56.583Z,97710.63
2022-07-26T09:09:59.257Z,97703.34
2022-07-26T09:12:53.772Z,97731.34
2022-07-26T09:15:42.207Z,97725.22
2022-07-26T09:18:32.997Z,97729.31
2022-07-26T09:21:32.567Z,97742.19
2022-07-26T09:24:35.159Z,97742.94
2022-07-26T09:27:28.100Z,97724.19
2022-07-26T09:30:18.082Z,97753.72
2022-07-26T09:33:08.680Z,97752.00
2022-07-26T09:36:07.693Z,97757.69
2022-07-26T09:38:58.710Z,97750.84
2022-07-26T09:42:04.819Z,97754.84
2022-07-26T09:44:57.202Z,97751.84
2022-07-26T09:47:45.765Z,97763.22
2022-07-26T09:50:34.872Z,97788.81
2022-07-26T09:53:24.667Z,97791.34
2022-07-26T09:56:14.264Z,97781.03
2022-07-26T09:59:02.834Z,97799.03
2022-07-26T10:01:52.992Z,97797.47
2022-07-26T10:04:42.586Z,97781.91
2022-07-26T10:07:31.459Z,97780.97
2022-07-26T10:10:24.581Z,97786.00
2022-07-26T10:13:13.140Z,97805.91
2022-07-26T10:16:02.075Z,97811.16
2022-07-26T10:18:50.523Z,97796.56
2022-07-26T10:21:39.472Z,97795.69
2022-07-26T10:24:29.244Z,97812.84
2022-07-26T10:27:40.021Z,97796.47
2022-07-26T10:30:35.110Z,97805.09
2022-07-26T10:33:26.931Z,97805.13
2022-07-26T10:36:27.742Z,97830.81
2022-07-26T10:39:17.555Z,97829.16
2022-07-26T10:42:08.026Z,97828.03
2022-07-26T10:45:18.372Z,97832.75
2022-07-26T10:48:15.651Z,97855.97
2022-07-26T10:51:28.450Z,97851.09
2022-07-26T10:54:17.874Z,97845.13
2022-07-26T10:57:06.361Z,97851.88
2022-07-26T10:59:57.536Z,97841.56
2022-07-26T11:02:50.719Z,97843.34
2022-07-26T11:05:39.441Z,97845.94
2022-07-26T11:08:32.473Z,97874.75
2022-07-26T11:11:30.831Z,97859.72
2022-07-26T11:14:19.823Z,97859.22
2022-07-26T11:17:08.725Z,97861.41
2022-07-26T11:19:59.195Z,97887.19
2022-07-26T11:22:47.649Z,97868.69
2022-07-26T11:25:36.149Z,97883.00
2022-07-26T11:28:26.502Z,97873.06
2022-07-26T11:31:15.946Z,97865.69
2022-07-26T11:34:05.763Z,97859.22
2022-07-26T11:37:01.289Z,97878.56
2022-07-26T11:39:49.767Z,97867.03
2022-07-26T11:42:38.275Z,97874.28
2022-07-26T11:45:30.237Z,97894.41
2022-07-26T11:48:18.678Z,97873.03
2022-07-26T11:51:11.596Z,97869.69
2022-07-26T11:54:04.740Z,97862.97
2022-07-26T11:56:58.158Z,97888.34
2022-07-26T11:59:48.653Z,97865.53
2022-07-26T12:02:37.116Z,97862.78
2022-07-26T12:05:26.422Z,97862.63
2022-07-26T12:08:14.981Z,97860.72
2022-07-26T12:11:04.903Z,97862.41
2022-07-26T12:13:56.701Z,97847.72
2022-07-26T12:16:46.467Z,97858.50
2022-07-26T12:19:35.727Z,97875.97
2022-07-26T12:22:25.767Z,97861.03
2022-07-26T12:25:14.326Z,97875.78
2022-07-26T12:28:06.921Z,97867.16
2022-07-26T12:30:55.444Z,97864.38
2022-07-26T12:33:49.288Z,97851.09
2022-07-26T12:36:37.736Z,97851.16
2022-07-26T12:39:26.089Z,97858.00
2022-07-26T12:42:33.034Z,97860.06
2022-07-26T12:45:25.833Z,97857.09
2022-07-26T12:48:14.475Z,97860.81
2022-07-26T12:51:02.874Z,97866.69
2022-07-26T12:53:51.281Z,97863.72
2022-07-26T12:56:39.704Z,97864.06
2022-07-26T12:59:28.320Z,97858.97
2022-07-26T13:02:18.989Z,97859.66
2022-07-26T13:05:08.599Z,97869.03
2022-07-26T13:07:57.191Z,97871.59
2022-07-26T13:10:45.690Z,97869.19
2022-07-26T13:13:34.191Z,97867.34
2022-07-26T13:16:22.737Z,97867.91
2022-07-26T13:19:12.484Z,97872.59
2022-07-26T13:22:01.935Z,97879.41
2022-07-26T13:24:50.540Z,97872.09
2022-07-26T13:27:44.290Z,97884.38
2022-07-26T13:30:33.352Z,97888.66
2022-07-26T13:33:21.858Z,97880.25
2022-07-26T13:36:11.629Z,97894.84
2022-07-26T13:39:00.150Z,97897.63
2022-07-26T13:41:48.517Z,97918.97
2022-07-26T13:44:36.976Z,97909.06
2022-07-26T13:47:25.311Z,97935.38
2022-07-26T13:50:18.420Z,97947.84
2022-07-26T13:53:12.738Z,97923.16
2022-07-26T13:56:01.194Z,97954.88
2022-07-26T13:58:49.606Z,97934.63
2022-07-26T14:01:43.579Z,97958.41
2022-07-26T14:04:33.346Z,97966.97
2022-07-26T14:07:21.693Z,97953.94
2022-07-26T14:10:12.150Z,97957.53
2022-07-26T14:13:00.709Z,97960.00
2022-07-26T14:15:49.090Z,97958.56
2022-07-26T14:18:37.668Z,97966.97
2022-07-26T14:21:26.788Z,97962.06
2022-07-26T14:24:15.185Z,97964.00
2022-07-26T14:27:08.264Z,97979.41
2022-07-26T14:29:56.715Z,97976.75
2022-07-26T14:32:45.265Z,97976.53
2022-07-26T14:35:33.810Z,97966.34
2022-07-26T14:38:26.777Z,97973.00
2022-07-26T14:41:18.211Z,97963.31
2022-07-26T14:44:08.546Z,97972.22
2022-07-26T14:46:56.968Z,97964.97
2022-07-26T14:49:45.394Z,97961.22
2022-07-26T14:52:33.913Z,97967.19
2022-07-26T14:55:25.541Z,97959.84
2022-07-26T14:58:14.234Z,97952.47
2022-07-26T15:01:04.154Z,97970.50
2022-07-26T15:03:55.261Z,97965.69
2022-07-26T15:06:43.630Z,97961.00
2022-07-26T15:09:31.985Z,97974.88
2022-07-26T15:12:20.358Z,97965.84
2022-07-26T15:15:10.183Z,97964.63
2022-07-26T15:18:00.084Z,97964.94
2022-07-26T15:20:48.599Z,97967.78
2022-07-26T15:23:40.083Z,97977.75
2022-07-26T15:26:28.408Z,97975.47
2022-07-26T15:29:16.836Z,97980.94
2022-07-26T15:32:06.655Z,97985.53
2022-07-26T15:34:56.459Z,97977.69
2022-07-26T15:37:45.338Z,97974.03
2022-07-26T15:40:33.831Z,97964.81
2022-07-26T15:43:47.985Z,97963.50
2022-07-26T15:46:32.339Z,97979.19
2022-07-26T15:49:20.881Z,97979.50
2022-07-26T15:52:12.533Z,97990.91
2022-07-26T15:55:00.947Z,97985.91
2022-07-26T15:57:49.554Z,97990.03
2022-07-26T16:00:38.025Z,97982.25
2022-07-26T16:03:28.506Z,97981.03
2022-07-26T16:06:17.039Z,97987.78
2022-07-26T16:09:22.944Z,97993.38
2022-07-26T16:12:11.666Z,97995.03
2022-07-26T16:15:00.137Z,97995.31
2022-07-26T16:17:48.513Z,97999.47
2022-07-26T16:20:37.226Z,98005.75
2022-07-26T16:23:25.629Z,98003.94
2022-07-26T16:26:15.337Z,98007.69
2022-07-26T16:29:04.089Z,98005.03
2022-07-26T16:31:54.707Z,97998.59
2022-07-26T16:34:43.035Z,98002.94
2022-07-26T16:37:31.525Z,97991.53
2022-07-26T16:40:19.887Z,97990.06
2022-07-26T16:43:11.991Z,97992.56
2022-07-26T16:46:00.641Z,97990.34
2022-07-26T16:48:49.133Z,97988.09
2022-07-26T16:51:37.488Z,97988.97
2022-07-26T16:54:25.781Z,97991.69
2022-07-26T16:57:14.164Z,97984.16
2022-07-26T17:00:04.233Z,97985.56
2022-07-26T17:02:52.651Z,97988.13
2022-07-26T17:05:41.031Z,97988.97
2022-07-26T17:08:29.480Z,97993.84
2022-07-26T17:11:17.987Z,97992.81
2022-07-26T17:14:06.425Z,97990.81
2022-07-26T17:16:57.966Z,97992.72
2022-07-26T17:19:46.383Z,97993.09
2022-07-26T17:22:35.055Z,97993.09
2022-07-26T17:25:23.607Z,97992.75
2022-07-26T17:28:12.263Z,97989.22
2022-07-26T17:31:00.614Z,97984.34
2022-07-26T17:33:50.684Z,97990.91
2022-07-26T17:36:39.073Z,97991.66
2022-07-26T17:39:50.773Z,98000.88
2022-07-26T17:42:36.163Z,97997.31
2022-07-26T17:45:24.531Z,97996.91
2022-07-26T17:48:12.924Z,97995.31
2022-07-26T17:51:02.728Z,98003.03
2022-07-26T17:53:53.406Z,98004.94
2022-07-26T17:56:42.079Z,98009.75
2022-07-26T17:59:30.581Z,98005.66
2022-07-26T18:02:19.186Z,98006.25
2022-07-26T18:05:08.074Z,98011.50
2022-07-26T18:07:57.979Z,98004.22
2022-07-26T18:10:50.878Z,98014.22
2022-07-26T18:13:39.821Z,98011.22
2022-07-26T18:16:28.414Z,98018.06
2022-07-26T18:19:16.903Z,98025.16
2022-07-26T18:22:06.463Z,98019.25
2022-07-26T18:24:56.479Z,98028.47
2022-07-26T18:27:45.092Z,98026.84
2022-07-26T18:30:33.546Z,98032.44
2022-07-26T18:33:21.968Z,98026.13
2022-07-26T18:36:10.437Z,98031.31
2022-07-26T18:38:59.942Z,98031.94
2022-07-26T18:41:49.646Z,98034.94
2022-07-26T18:44:38.495Z,98027.41
2022-07-26T18:47:27.002Z,98038.25
2022-07-26T18:50:17.218Z,98033.50
2022-07-26T18:53:05.977Z,98030.97
2022-07-26T18:55:54.450Z,98027.97
2022-07-26T18:58:44.323Z,98033.50
2022-07-26T19:01:32.770Z,98030.41
2022-07-26T19:04:21.520Z,98033.09
2022-07-26T19:07:10.250Z,98029.31
2022-07-26T19:09:59.231Z,98030.19
2022-07-26T19:12:48.596Z,98023.16
2022-07-26T19:15:38.359Z,98029.66
2022-07-26T19:18:26.728Z,98024.13
2022-07-26T19:21:15.187Z,98029.06
2022-07-26T19:24:03.526Z,98027.69
2022-07-26T19:26:51.969Z,98031.44
2022-07-26T19:29:40.405Z,98030.59
2022-07-26T19:32:33.477Z,98024.25
2022-07-26T19:35:22.186Z,98022.38
2022-07-26T19:38:10.574Z,98021.72
2022-07-26T19:40:58.986Z,98020.50
2022-07-26T19:43:47.820Z,98017.84
2022-07-26T19:46:36.411Z,98024.28
2022-07-26T19:49:26.382Z,98020.03
2022-07-26T19:52:14.913Z,98022.34
2022-07-26T19:55:03.460Z,98023.94
2022-07-26T19:57:51.865Z,98032.03
2022-07-26T20:00:40.345Z,98031.28
2022-07-26T20:03:28.900Z,98020.22
2022-07-26T20:06:19.252Z,98027.84
2022-07-26T20:09:08.271Z,98026.34
2022-07-26T20:11:57.069Z,98016.03
2022-07-26T20:14:46.441Z,98022.59
2022-07-26T20:17:39.182Z,98022.84
2022-07-26T20:20:27.508Z,98030.47
2022-07-26T20:23:17.206Z,98021.50
2022-07-26T20:26:05.559Z,98028.47
2022-07-26T20:28:55.398Z,98034.66
2022-07-26T20:31:44.257Z,98035.28
2022-07-26T20:34:32.662Z,98043.53
2022-07-26T20:37:21.176Z,98050.97
2022-07-26T20:40:12.763Z,98044.28
2022-07-26T20:43:03.864Z,98044.88
2022-07-26T20:45:52.425Z,98044.66
2022-07-26T20:48:41.255Z,98049.25
2022-07-26T20:51:29.637Z,98044.72
2022-07-26T20:54:18.249Z,98047.22
2022-07-26T20:57:07.926Z,98051.78
2022-07-26T20:59:57.180Z,98048.38
2022-07-26T21:02:46.468Z,98053.34
2022-07-26T21:05:34.923Z,98049.66
2022-07-26T21:08:23.286Z,98057.03
2022-07-26T21:11:11.707Z,98053.78
2022-07-26T21:14:01.429Z,98049.78
2022-07-26T21:16:49.876Z,98054.66
2022-07-26T21:19:38.442Z,98053.59
2022-07-26T21:22:26.902Z,98052.63
2022-07-26T21:25:15.423Z,98056.41
2022-07-26T21:28:03.747Z,98061.47
2022-07-26T21:30:54.194Z,98055.91
2022-07-26T21:33:44.721Z,98058.00
2022-07-26T21:36:33.326Z,98060.59
2022-07-26T21:39:22.086Z,98065.88
2022-07-26T21:42:10.660Z,98065.56
2022-07-26T21:44:59.082Z,98069.09
2022-07-26T21:47:48.816Z,98062.41
2022-07-26T21:50:37.229Z,98065.94
2022-07-26T21:53:25.625Z,98065.84
2022-07-26T21:56:14.138Z,98074.53
2022-07-26T21:59:02.498Z,98059.88
2022-07-26T22:01:51.138Z,98061.81
2022-07-26T22:04:40.992Z,98062.09
2022-07-26T22:07:32.191Z,98055.72
2022-07-26T22:10:20.747Z,98070.91
2022-07-26T22:13:09.305Z,98066.53
2022-07-26T22:15:57.812Z,98068.19
2022-07-26T22:18:46.190Z,98072.53
2022-07-26T22:21:36.150Z,98072.41
2022-07-26T22:24:24.549Z,98075.03
2022-07-26T22:27:12.997Z,98077.88
2022-07-26T22:30:02.313Z,98071.91
2022-07-26T22:32:50.687Z,98077.31
2022-07-26T22:35:39.009Z,98075.91
2022-07-26T22:38:28.850Z,98078.16
2022-07-26T22:41:17.337Z,98068.38
2022-07-26T22:44:06.051Z,98065.97
2022-07-26T22:46:54.708Z,98064.56
2022-07-26T22:49:43.236Z,98062.41
2022-07-26T22:52:31.697Z,98062.78
2022-07-26T22:55:22.215Z,98068.63
2022-07-26T22:58:10.591Z,98066.16
2022-07-26T23:00:59.070Z,98068.41
2022-07-26T23:03:49.755Z,98059.44
2022-07-26T23:06:38.990Z,98064.66
2022-07-26T23:09:28.678Z,98068.91
2022-07-26T23:12:18.538Z,98063.41
2022-07-26T23:15:08.385Z,98067.66
2022-07-26T23:17:58.223Z,98055.53
2022-07-26T23:20:46.703Z,98065.16
2022-07-26T23:23:35.119Z,98064.28
2022-07-26T23:26:23.819Z,98062.44
2022-07-26T23:29:14.086Z,98066.31
2022-07-26T23:32:02.767Z,98070.22
2022-07-26T23:34:51.144Z,98068.56
2022-07-26T23:37:39.630Z,98070.53
2022-07-26T23:40:28.000Z,98071.69
2022-07-26T23:43:16.469Z,98070.94
2022-07-26T23:46:06.239Z,98070.84
2022-07-26T23:48:55.454Z,98064.72
2022-07-26T23:51:43.954Z,98073.16
2022-07-26T23:54:32.372Z,98070.00
2022-07-26T23:57:20.875Z,98072.66
